Time;durP1;ratioP1;P1;durP2;ratioP2;P2;SDS_P1;SDS_P2;PMS_P1;PMS_P2;Temp;Humidity;BMP_temperature;BMP_pressure;BME280_temperature;BME280_humidity;BME280_pressure;Samples;Min_cycle;Max_cycle;Signal;HPM_P1;HPM_P2
2023/07/25 00:00:44;;;;;;;7.35;2.47;;;14.20;99.90;;;;;;5082808;28;20066;-51
2023/07/25 00:03:10;;;;;;;8.50;2.35;;;14.20;99.90;;;;;;5070941;28;20068;-47
2023/07/25 00:05:36;;;;;;;8.40;1.80;;;14.10;99.90;;;;;;5071055;28;20042;-50
2023/07/25 00:08:02;;;;;;;9.80;2.20;;;14.10;99.90;;;;;;5071924;28;20464;-48
2023/07/25 00:10:28;;;;;;;6.43;2.15;;;14.00;99.90;;;;;;5075875;28;20074;-47
2023/07/25 00:12:55;;;;;;;8.52;2.70;;;14.00;99.90;;;;;;5074843;28;20044;-48
2023/07/25 00:15:21;;;;;;;8.95;2.65;;;14.00;99.90;;;;;;5071803;28;20526;-49
2023/07/25 00:17:47;;;;;;;6.70;2.50;;;14.00;99.90;;;;;;5071716;28;20044;-49
2023/07/25 00:20:13;;;;;;;10.65;2.70;;;14.00;99.90;;;;;;5071385;28;20162;-47
2023/07/25 00:22:38;;;;;;;8.52;2.53;;;13.90;99.90;;;;;;5071675;28;20040;-50
2023/07/25 00:25:04;;;;;;;6.70;2.40;;;13.90;99.90;;;;;;5071576;28;20388;-49
2023/07/25 00:27:30;;;;;;;14.98;3.08;;;13.90;99.90;;;;;;5071574;28;20044;-46
2023/07/25 00:29:55;;;;;;;9.93;1.95;;;13.90;99.90;;;;;;5071486;28;20045;-49
2023/07/25 00:32:21;;;;;;;10.55;2.40;;;13.90;99.90;;;;;;5071474;28;20114;-51
2023/07/25 00:34:50;;;;;;;8.57;2.88;;;13.80;99.90;;;;;;5071531;28;20432;-49
2023/07/25 00:37:16;;;;;;;8.68;1.90;;;13.80;99.90;;;;;;5071093;28;20067;-51
2023/07/25 00:39:41;;;;;;;8.13;2.80;;;13.80;99.90;;;;;;5078931;28;20071;-49
2023/07/25 00:42:07;;;;;;;9.60;2.78;;;13.80;99.90;;;;;;5091215;28;20047;-48
2023/07/25 00:44:33;;;;;;;7.15;2.33;;;13.70;99.90;;;;;;5090422;28;20411;-50
2023/07/25 00:46:58;;;;;;;8.85;1.98;;;13.70;99.90;;;;;;5071927;28;20494;-50
2023/07/25 00:49:24;;;;;;;9.52;2.80;;;13.70;99.90;;;;;;5055985;28;20052;-47
2023/07/25 00:51:50;;;;;;;7.60;2.78;;;13.70;99.90;;;;;;5070820;28;20048;-49
2023/07/25 00:54:16;;;;;;;10.77;3.13;;;13.70;99.90;;;;;;5071114;28;20558;-51
2023/07/25 00:56:42;;;;;;;9.90;3.00;;;13.70;99.90;;;;;;5071372;28;20045;-49
2023/07/25 00:59:08;;;;;;;11.30;3.15;;;13.60;99.90;;;;;;5089995;28;20038;-48
2023/07/25 01:01:34;;;;;;;9.70;3.63;;;13.60;99.90;;;;;;5089666;28;20158;-47
2023/07/25 01:04:00;;;;;;;10.95;2.15;;;13.70;99.90;;;;;;5090104;28;20112;-46
2023/07/25 01:06:26;;;;;;;8.15;2.80;;;13.60;99.90;;;;;;5070016;28;20127;-47
2023/07/25 01:08:54;;;;;;;7.05;2.10;;;13.60;99.90;;;;;;5070008;28;20043;-49
2023/07/25 01:11:22;;;;;;;8.05;2.00;;;13.60;99.90;;;;;;5074581;28;20071;-50
2023/07/25 01:13:48;;;;;;;8.10;2.65;;;13.50;99.90;;;;;;5076252;28;20029;-50
2023/07/25 01:16:23;;;;;;;7.35;2.53;;;13.50;99.90;;;;;;5070205;28;20051;-49
2023/07/25 01:18:50;;;;;;;7.75;2.70;;;13.50;99.90;;;;;;5089167;28;20040;-50
2023/07/25 01:21:17;;;;;;;11.15;2.65;;;13.40;99.90;;;;;;5091066;28;20379;-47
2023/07/25 01:23:43;;;;;;;8.02;2.50;;;13.40;99.90;;;;;;5091165;28;20062;-52
2023/07/25 01:26:08;;;;;;;8.45;2.72;;;13.30;99.90;;;;;;5090987;28;20383;-49
2023/07/25 01:28:37;;;;;;;8.25;2.90;;;13.30;99.90;;;;;;5089308;28;20036;-50
2023/07/25 01:31:03;;;;;;;7.10;2.50;;;13.10;99.90;;;;;;5077928;28;20037;-51
2023/07/25 01:33:28;;;;;;;9.88;2.95;;;13.10;99.90;;;;;;5070805;28;20105;-48
2023/07/25 01:35:54;;;;;;;8.20;2.70;;;13.00;99.90;;;;;;5070582;28;20444;-52
2023/07/25 01:38:19;;;;;;;9.30;2.90;;;13.00;99.90;;;;;;5070489;28;20472;-51
2023/07/25 01:40:45;;;;;;;9.27;2.70;;;13.00;99.90;;;;;;5070617;28;20039;-49
2023/07/25 01:43:11;;;;;;;8.75;2.53;;;12.90;99.90;;;;;;5070594;28;20078;-45
2023/07/25 01:45:36;;;;;;;6.43;2.67;;;12.90;99.90;;;;;;5070736;28;20407;-49
2023/07/25 01:48:02;;;;;;;9.75;2.80;;;12.90;99.90;;;;;;5070431;28;20041;-48
2023/07/25 01:50:29;;;;;;;6.07;2.58;;;12.80;99.90;;;;;;5070395;28;20060;-49
2023/07/25 01:52:55;;;;;;;10.68;2.22;;;12.90;99.90;;;;;;5070268;28;20036;-49
2023/07/25 01:55:21;;;;;;;7.35;2.40;;;12.80;99.90;;;;;;5070706;28;20077;-49
2023/07/25 01:57:47;;;;;;;6.53;2.88;;;12.80;99.90;;;;;;5070570;28;20040;-50
2023/07/25 02:00:13;;;;;;;7.63;3.08;;;12.90;99.90;;;;;;5070744;28;20043;-47
2023/07/25 02:02:39;;;;;;;10.68;3.08;;;12.90;99.90;;;;;;5070208;28;20044;-51
2023/07/25 02:05:05;;;;;;;7.45;2.13;;;13.00;99.90;;;;;;5069796;28;20118;-48
2023/07/25 02:07:31;;;;;;;7.68;3.28;;;13.00;99.90;;;;;;5069996;28;20047;-51
2023/07/25 02:09:57;;;;;;;10.07;3.20;;;13.00;99.90;;;;;;5088636;28;20127;-51
2023/07/25 02:12:23;;;;;;;9.35;3.42;;;13.10;99.90;;;;;;5090434;28;20539;-48
2023/07/25 02:14:49;;;;;;;7.68;3.25;;;13.10;99.90;;;;;;5090678;28;20036;-51
2023/07/25 02:17:14;;;;;;;10.10;2.95;;;13.10;99.90;;;;;;5069224;28;20480;-49
2023/07/25 02:19:40;;;;;;;12.02;3.60;;;13.10;99.90;;;;;;5070361;28;20697;-47
2023/07/25 02:22:06;;;;;;;9.93;3.42;;;13.10;99.90;;;;;;5071417;28;20455;-46
2023/07/25 02:24:31;;;;;;;9.20;3.55;;;13.20;99.90;;;;;;5076251;28;20041;-45
2023/07/25 02:26:57;;;;;;;9.00;3.03;;;13.20;99.90;;;;;;5074457;28;20071;-49
2023/07/25 02:29:23;;;;;;;9.02;2.97;;;13.20;99.90;;;;;;5073456;28;20082;-51
2023/07/25 02:31:49;;;;;;;8.13;2.95;;;13.20;99.90;;;;;;5073562;28;20484;-51
2023/07/25 02:34:15;;;;;;;9.63;3.20;;;13.30;99.90;;;;;;5073560;28;20032;-51
2023/07/25 02:36:41;;;;;;;7.15;3.22;;;13.20;99.90;;;;;;5073489;28;20041;-47
2023/07/25 02:39:06;;;;;;;7.22;3.30;;;13.20;99.90;;;;;;5073305;28;20043;-52
2023/07/25 02:41:32;;;;;;;7.72;3.10;;;13.20;99.90;;;;;;5073448;28;20039;-50
2023/07/25 02:43:58;;;;;;;7.00;3.10;;;13.20;99.90;;;;;;5074613;28;20036;-50
2023/07/25 02:46:23;;;;;;;9.48;3.53;;;13.20;99.90;;;;;;5092516;28;20055;-47
2023/07/25 02:48:49;;;;;;;8.70;3.17;;;13.30;99.90;;;;;;5093573;28;20100;-50
2023/07/25 02:51:15;;;;;;;8.63;3.30;;;13.30;99.90;;;;;;5094041;28;20047;-46
2023/07/25 02:53:40;;;;;;;8.02;3.33;;;13.30;99.90;;;;;;5093295;28;20068;-48
2023/07/25 02:56:06;;;;;;;7.28;2.60;;;13.30;99.90;;;;;;5093515;28;20332;-48
2023/07/25 02:58:31;;;;;;;10.18;3.42;;;13.30;99.90;;;;;;5093625;28;20028;-48
2023/07/25 03:00:57;;;;;;;9.32;3.83;;;13.20;99.90;;;;;;5082311;28;20043;-48
2023/07/25 03:03:23;;;;;;;8.48;2.25;;;13.20;99.90;;;;;;5073895;28;20044;-50
2023/07/25 03:05:48;;;;;;;9.93;3.50;;;13.20;99.90;;;;;;5078746;28;20040;-47
2023/07/25 03:08:14;;;;;;;7.43;3.88;;;13.20;99.90;;;;;;5072043;28;20139;-52
2023/07/25 03:10:40;;;;;;;7.28;2.28;;;13.20;99.90;;;;;;5073170;28;20032;-50
2023/07/25 03:13:05;;;;;;;6.40;2.25;;;13.30;99.90;;;;;;5073235;28;20082;-47
2023/07/25 03:15:31;;;;;;;8.93;3.10;;;13.20;99.90;;;;;;5074425;28;20098;-49
2023/07/25 03:17:57;;;;;;;11.02;2.58;;;13.20;99.90;;;;;;5073246;28;20476;-48
2023/07/25 03:20:22;;;;;;;7.43;3.03;;;13.30;99.90;;;;;;5073289;28;20394;-52
2023/07/25 03:22:48;;;;;;;10.93;3.00;;;13.30;99.90;;;;;;5073135;28;20032;-51
2023/07/25 03:25:14;;;;;;;8.07;3.17;;;13.40;99.90;;;;;;5084395;28;20476;-48
2023/07/25 03:27:39;;;;;;;7.18;3.10;;;13.40;99.90;;;;;;5072922;28;20067;-46
2023/07/25 03:30:06;;;;;;;7.53;3.33;;;13.50;99.90;;;;;;5072780;28;20479;-50
2023/07/25 03:32:31;;;;;;;8.40;2.92;;;13.50;99.90;;;;;;5072703;28;20028;-51
2023/07/25 03:34:57;;;;;;;7.70;3.13;;;13.50;99.90;;;;;;5072426;28;20116;-48
2023/07/25 03:37:23;;;;;;;10.77;3.33;;;13.50;99.90;;;;;;5078517;28;20043;-50
2023/07/25 03:39:48;;;;;;;5.13;1.95;;;13.60;99.90;;;;;;5070260;28;20047;-49
2023/07/25 03:42:14;;;;;;;9.27;3.28;;;13.60;99.90;;;;;;5072314;28;20044;-48
2023/07/25 03:44:40;;;;;;;6.55;2.28;;;13.60;99.90;;;;;;5071518;28;20037;-51
2023/07/25 03:47:05;;;;;;;5.82;2.17;;;13.60;99.90;;;;;;5072770;28;20079;-49
2023/07/25 03:49:31;;;;;;;7.70;3.00;;;13.70;99.90;;;;;;5072166;28;20052;-49
2023/07/25 03:51:57;;;;;;;8.15;3.28;;;13.60;99.90;;;;;;5072705;28;20036;-51
2023/07/25 03:54:23;;;;;;;8.95;3.15;;;13.70;99.90;;;;;;5071360;28;20140;-49
2023/07/25 03:56:50;;;;;;;9.70;3.30;;;13.80;99.90;;;;;;5071628;28;20032;-48
2023/07/25 03:59:17;;;;;;;6.35;3.00;;;13.80;99.90;;;;;;5071050;28;20045;-48
2023/07/25 04:01:42;;;;;;;10.00;3.45;;;13.80;99.90;;;;;;5071789;28;20044;-45
2023/07/25 04:04:08;;;;;;;7.78;2.80;;;13.80;99.90;;;;;;5072237;28;20035;-47
2023/07/25 04:06:33;;;;;;;10.85;2.55;;;13.80;99.90;;;;;;5071536;28;20036;-49
2023/07/25 04:08:59;;;;;;;8.55;3.15;;;13.80;99.90;;;;;;5071840;28;20476;-49
2023/07/25 04:11:25;;;;;;;9.63;3.38;;;13.80;99.90;;;;;;5090203;28;20036;-51
2023/07/25 04:13:51;;;;;;;8.77;3.25;;;13.90;99.90;;;;;;5091822;28;20059;-48
2023/07/25 04:16:16;;;;;;;8.85;3.10;;;13.90;99.90;;;;;;5090577;28;20404;-51
2023/07/25 04:18:42;;;;;;;9.13;2.70;;;13.90;99.90;;;;;;5091066;28;20387;-48
2023/07/25 04:21:08;;;;;;;10.30;2.97;;;14.00;99.90;;;;;;5076899;28;20036;-47
2023/07/25 04:23:33;;;;;;;9.38;2.85;;;14.00;99.90;;;;;;5070327;28;20146;-48
2023/07/25 04:25:59;;;;;;;10.32;2.90;;;14.00;99.90;;;;;;5073199;28;20135;-50
2023/07/25 04:28:25;;;;;;;10.43;3.10;;;14.00;99.90;;;;;;5071907;28;20106;-48
2023/07/25 04:30:50;;;;;;;11.30;3.65;;;14.00;99.90;;;;;;5071608;28;20046;-49
2023/07/25 04:33:16;;;;;;;10.50;2.83;;;14.00;99.90;;;;;;5071804;28;20111;-49
2023/07/25 04:35:45;;;;;;;8.27;3.10;;;14.10;99.90;;;;;;5070926;28;20048;-48
2023/07/25 04:38:12;;;;;;;10.23;3.30;;;14.10;99.90;;;;;;5071610;28;20032;-45
2023/07/25 04:40:38;;;;;;;10.10;2.60;;;14.10;99.90;;;;;;5071462;28;20033;-50
2023/07/25 04:43:03;;;;;;;8.07;2.80;;;14.10;99.90;;;;;;5071439;28;20437;-49
2023/07/25 04:45:29;;;;;;;8.23;2.47;;;14.20;99.90;;;;;;5083396;28;20037;-52
2023/07/25 04:47:55;;;;;;;7.70;2.35;;;14.20;99.90;;;;;;5089182;28;20081;-47
2023/07/25 04:50:20;;;;;;;9.98;1.75;;;14.10;99.90;;;;;;5090841;28;20438;-50
2023/07/25 04:52:46;;;;;;;10.05;2.17;;;14.20;99.90;;;;;;5073379;28;20044;-49
2023/07/25 04:55:12;;;;;;;10.63;2.22;;;14.10;99.90;;;;;;5082446;28;20032;-52
2023/07/25 04:57:37;;;;;;;13.52;3.33;;;14.20;99.90;;;;;;5071190;28;20040;-48
2023/07/25 05:00:05;;;;;;;10.82;3.42;;;14.10;99.90;;;;;;5071083;28;20498;-49
2023/07/25 05:02:31;;;;;;;9.68;2.90;;;14.10;99.90;;;;;;5070953;28;20055;-47
2023/07/25 05:04:56;;;;;;;11.48;3.17;;;14.10;99.90;;;;;;5070723;28;20044;-48
2023/07/25 05:07:22;;;;;;;8.40;2.55;;;14.00;99.90;;;;;;5068640;28;20060;-50
2023/07/25 05:09:48;;;;;;;9.82;2.85;;;14.00;99.90;;;;;;5070810;28;20486;-48
2023/07/25 05:12:13;;;;;;;8.50;2.42;;;14.00;99.90;;;;;;5071374;28;20036;-48
2023/07/25 05:14:40;;;;;;;11.00;3.17;;;13.90;99.90;;;;;;5070896;28;20043;-51
2023/07/25 05:17:06;;;;;;;9.52;3.40;;;13.90;99.90;;;;;;5070278;28;20033;-48
2023/07/25 05:19:31;;;;;;;9.85;2.85;;;14.00;99.90;;;;;;5068506;28;20376;-48
2023/07/25 05:21:57;;;;;;;11.80;2.25;;;14.00;99.90;;;;;;5064856;28;20067;-48
2023/07/25 05:24:23;;;;;;;9.52;3.08;;;14.10;99.90;;;;;;5068894;28;20052;-46
2023/07/25 05:26:49;;;;;;;9.95;2.42;;;14.10;99.90;;;;;;5067992;28;20115;-51
2023/07/25 05:29:15;;;;;;;10.50;2.90;;;14.20;99.90;;;;;;5068510;28;20128;-47
2023/07/25 05:31:41;;;;;;;10.85;2.67;;;14.40;99.90;;;;;;5068258;28;20047;-49
2023/07/25 05:34:06;;;;;;;9.50;2.80;;;14.50;99.90;;;;;;5069193;28;20039;-49
2023/07/25 05:36:32;;;;;;;7.15;2.40;;;14.70;99.90;;;;;;5068139;28;20545;-49
2023/07/25 05:38:58;;;;;;;11.07;2.58;;;14.70;99.90;;;;;;5068737;28;20075;-50
2023/07/25 05:41:23;;;;;;;9.35;2.13;;;14.70;99.90;;;;;;5068779;28;20044;-50
2023/07/25 05:43:49;;;;;;;5.45;1.42;;;14.70;99.90;;;;;;5067952;28;20471;-45
2023/07/25 05:46:15;;;;;;;8.85;2.15;;;14.70;99.90;;;;;;5069815;28;20037;-50
2023/07/25 05:48:40;;;;;;;9.50;2.25;;;14.70;99.90;;;;;;5068610;28;20052;-51
2023/07/25 05:51:06;;;;;;;8.95;2.85;;;14.70;99.90;;;;;;5069294;28;20093;-49
2023/07/25 05:53:32;;;;;;;7.75;2.20;;;14.60;99.90;;;;;;5066414;28;20048;-46
2023/07/25 05:55:57;;;;;;;6.72;2.00;;;14.60;99.90;;;;;;5068793;28;20032;-53
2023/07/25 05:58:23;;;;;;;8.07;2.67;;;14.60;99.90;;;;;;5068332;28;20533;-47
2023/07/25 06:00:49;;;;;;;7.45;2.03;;;14.70;99.90;;;;;;5068298;28;20403;-50
2023/07/25 06:03:16;;;;;;;12.85;1.88;;;14.60;99.90;;;;;;5069735;28;20037;-48
2023/07/25 06:05:41;;;;;;;7.75;1.67;;;14.60;99.90;;;;;;5072058;28;20037;-48
2023/07/25 06:08:07;;;;;;;7.00;2.22;;;14.60;99.90;;;;;;5062703;28;21367;-52
2023/07/25 06:10:34;;;;;;;10.70;1.90;;;14.70;99.90;;;;;;5064929;28;20511;-50
2023/07/25 06:13:00;;;;;;;8.93;2.00;;;14.70;99.90;;;;;;5063309;28;20043;-48
2023/07/25 06:15:29;;;;;;;10.65;2.25;;;14.70;99.90;;;;;;5063890;28;20444;-47
2023/07/25 06:17:55;;;;;;;10.30;1.83;;;14.80;99.90;;;;;;5062335;28;20496;-50
2023/07/25 06:20:21;;;;;;;9.00;2.05;;;14.80;99.90;;;;;;5063584;28;20036;-49
2023/07/25 06:22:47;;;;;;;9.77;2.10;;;14.70;99.90;;;;;;5063645;28;20040;-49
2023/07/25 06:25:15;;;;;;;9.20;2.65;;;14.80;99.90;;;;;;5061875;28;20037;-48
2023/07/25 06:27:41;;;;;;;8.18;2.20;;;14.90;99.90;;;;;;5061462;28;20052;-48
2023/07/25 06:30:07;;;;;;;10.55;2.00;;;14.90;99.90;;;;;;5063160;28;20024;-50
2023/07/25 06:32:34;;;;;;;8.07;2.00;;;14.90;99.90;;;;;;5061261;28;22952;-51
2023/07/25 06:35:00;;;;;;;5.85;1.30;;;14.90;99.90;;;;;;5061813;28;20136;-47
2023/07/25 06:37:25;;;;;;;9.10;1.70;;;14.90;99.90;;;;;;5060225;28;20132;-47
2023/07/25 06:39:51;;;;;;;10.02;1.95;;;14.90;99.90;;;;;;5063286;28;20102;-47
2023/07/25 06:42:17;;;;;;;8.02;1.98;;;14.90;99.90;;;;;;5063316;28;20036;-50
2023/07/25 06:44:43;;;;;;;8.25;1.60;;;14.90;99.90;;;;;;5062975;28;20059;-53
2023/07/25 06:47:08;;;;;;;12.50;2.03;;;14.90;99.90;;;;;;5062691;28;20045;-46
2023/07/25 06:49:34;;;;;;;9.65;1.95;;;14.90;99.90;;;;;;5060789;28;20052;-45
2023/07/25 06:52:00;;;;;;;8.07;1.77;;;15.00;99.90;;;;;;5057831;28;20373;-46
2023/07/25 06:54:26;;;;;;;14.82;2.03;;;15.10;99.90;;;;;;5057163;28;20848;-45
2023/07/25 06:56:52;;;;;;;10.05;1.50;;;15.20;99.90;;;;;;5058230;28;20566;-48
2023/07/25 06:59:18;;;;;;;8.25;1.73;;;15.20;99.90;;;;;;5059125;28;20036;-49
2023/07/25 07:01:44;;;;;;;6.65;1.20;;;15.30;99.90;;;;;;5056196;28;20037;-49
2023/07/25 07:04:09;;;;;;;7.88;1.05;;;15.40;99.90;;;;;;5059771;28;20032;-51
2023/07/25 07:06:35;;;;;;;5.95;1.20;;;15.40;99.90;;;;;;5059196;28;20098;-50
2023/07/25 07:09:01;;;;;;;8.25;1.40;;;15.50;99.90;;;;;;5062449;28;20028;-49
2023/07/25 07:11:27;;;;;;;8.23;1.20;;;15.50;99.90;;;;;;5061585;28;20123;-47
2023/07/25 07:13:52;;;;;;;8.07;1.38;;;15.60;99.90;;;;;;5061401;28;20147;-47
2023/07/25 07:16:18;;;;;;;3.78;0.80;;;15.70;99.90;;;;;;5061764;28;20032;-49
2023/07/25 07:18:45;;;;;;;4.57;0.70;;;15.70;99.90;;;;;;5061390;28;20488;-50
2023/07/25 07:21:11;;;;;;;6.68;1.20;;;15.70;99.90;;;;;;5061715;28;20067;-48
2023/07/25 07:23:36;;;;;;;6.95;1.10;;;15.80;99.90;;;;;;5061346;28;20036;-49
2023/07/25 07:26:02;;;;;;;7.95;0.70;;;15.80;99.90;;;;;;5061342;28;20059;-48
2023/07/25 07:28:29;;;;;;;7.80;1.05;;;15.90;99.90;;;;;;5061815;28;20045;-49
2023/07/25 07:30:55;;;;;;;5.35;1.05;;;15.90;99.90;;;;;;5062871;28;20119;-46
2023/07/25 07:33:21;;;;;;;4.82;0.80;;;16.00;99.90;;;;;;5062000;28;20453;-47
2023/07/25 07:35:47;;;;;;;3.97;0.75;;;16.10;99.90;;;;;;5060073;28;20032;-50
2023/07/25 07:38:13;;;;;;;2.67;0.50;;;16.20;99.90;;;;;;5061723;28;20024;-51
2023/07/25 07:40:38;;;;;;;5.10;0.70;;;16.30;99.90;;;;;;5055254;28;20057;-49
2023/07/25 07:43:04;;;;;;;7.75;1.08;;;16.40;99.90;;;;;;5060274;28;20067;-51
2023/07/25 07:45:33;;;;;;;5.10;0.75;;;16.50;99.90;;;;;;5058919;28;20108;-49
2023/07/25 07:48:00;;;;;;;5.22;1.02;;;16.60;99.90;;;;;;5056466;28;20059;-48
2023/07/25 07:50:28;;;;;;;4.53;1.10;;;16.60;99.90;;;;;;5060103;28;20049;-49
2023/07/25 07:52:54;;;;;;;4.90;0.80;;;16.60;99.90;;;;;;5062074;28;20384;-51
2023/07/25 07:55:20;;;;;;;4.47;0.90;;;16.50;99.90;;;;;;5061054;28;20102;-50
2023/07/25 07:57:46;;;;;;;3.63;0.60;;;16.50;99.90;;;;;;5062652;28;20037;-47
2023/07/25 08:00:14;;;;;;;5.68;0.93;;;16.50;99.90;;;;;;5063335;28;20037;-49
2023/07/25 08:02:41;;;;;;;7.55;0.80;;;16.60;99.90;;;;;;5059263;28;20571;-51
2023/07/25 08:05:07;;;;;;;3.65;0.90;;;16.70;99.90;;;;;;5060067;28;20048;-49
2023/07/25 08:07:34;;;;;;;2.08;0.70;;;16.70;99.90;;;;;;5061097;28;20048;-49
2023/07/25 08:09:59;;;;;;;4.07;0.80;;;16.80;99.90;;;;;;5067781;28;20124;-50
2023/07/25 08:12:25;;;;;;;4.93;0.75;;;16.80;99.90;;;;;;5051338;28;20131;-49
2023/07/25 08:14:52;;;;;;;3.30;0.60;;;16.80;99.90;;;;;;5061904;28;20472;-48
2023/07/25 08:17:18;;;;;;;6.32;0.80;;;16.90;99.90;;;;;;5061432;28;20036;-49
2023/07/25 08:19:44;;;;;;;3.42;0.70;;;16.90;99.90;;;;;;5061100;28;20162;-49
2023/07/25 08:22:10;;;;;;;4.05;1.00;;;17.00;99.90;;;;;;5058475;28;20108;-46
2023/07/25 08:24:36;;;;;;;6.20;0.98;;;17.00;99.90;;;;;;5058426;28;20055;-48
2023/07/25 08:27:02;;;;;;;5.18;0.65;;;17.10;99.90;;;;;;5059244;28;20090;-48
2023/07/25 08:29:28;;;;;;;3.22;0.70;;;17.20;99.90;;;;;;5062600;28;20077;-51
2023/07/25 08:31:54;;;;;;;3.92;0.85;;;17.30;99.90;;;;;;5062491;28;20037;-51
2023/07/25 08:34:20;;;;;;;5.00;0.88;;;17.30;99.90;;;;;;5061436;28;20051;-49
2023/07/25 08:36:46;;;;;;;5.90;1.13;;;17.40;99.90;;;;;;5059566;28;20197;-51
2023/07/25 08:39:12;;;;;;;6.18;0.98;;;17.40;99.90;;;;;;5061000;28;20032;-50
2023/07/25 08:41:50;;;;;;;6.22;0.90;;;17.50;99.90;;;;;;5061527;28;20070;-49
2023/07/25 08:44:19;;;;;;;5.28;0.90;;;17.50;99.90;;;;;;5060941;28;20528;-49
2023/07/25 08:46:45;;;;;;;4.72;0.90;;;17.50;99.90;;;;;;5059743;28;20119;-50
2023/07/25 08:49:15;;;;;;;4.97;1.00;;;17.50;99.90;;;;;;5059801;28;20056;-48
2023/07/25 08:51:43;;;;;;;5.65;1.20;;;17.50;99.90;;;;;;5059745;28;20104;-50
2023/07/25 08:54:31;;;;;;;3.15;0.63;;;17.60;99.90;;;;;;5063059;28;20039;-50
2023/07/25 08:56:58;;;;;;;3.58;0.88;;;17.70;99.90;;;;;;5093542;28;20465;-47
2023/07/25 08:59:27;;;;;;;5.13;0.88;;;17.80;99.90;;;;;;5063329;28;20037;-49
2023/07/25 09:01:53;;;;;;;4.55;0.85;;;17.70;99.90;;;;;;5061073;28;20056;-48
2023/07/25 09:04:20;;;;;;;4.38;1.05;;;17.70;99.90;;;;;;5062163;28;20417;-51
2023/07/25 09:06:46;;;;;;;6.35;1.00;;;17.70;99.90;;;;;;5063766;28;20079;-51
2023/07/25 09:09:13;;;;;;;2.30;0.75;;;17.90;99.90;;;;;;5062303;28;20106;-51
2023/07/25 09:11:39;;;;;;;4.20;0.85;;;18.00;99.90;;;;;;5063370;28;20040;-48
2023/07/25 09:14:05;;;;;;;4.05;0.80;;;18.20;99.90;;;;;;5062936;28;20457;-48
2023/07/25 09:16:31;;;;;;;4.40;0.82;;;18.40;99.90;;;;;;5061258;28;20098;-50
2023/07/25 09:18:57;;;;;;;4.55;0.90;;;18.30;99.90;;;;;;5062527;28;20164;-45
2023/07/25 09:21:22;;;;;;;5.60;0.93;;;18.30;99.90;;;;;;5061475;28;20064;-51
2023/07/25 09:23:51;;;;;;;4.13;1.10;;;18.40;99.90;;;;;;5061695;28;20138;-49
2023/07/25 09:26:19;;;;;;;4.65;1.00;;;18.60;99.90;;;;;;5062022;28;20095;-49
2023/07/25 09:28:50;;;;;;;5.88;1.05;;;18.80;99.90;;;;;;5061146;28;20047;-48
2023/07/25 09:31:16;;;;;;;4.22;0.80;;;18.80;99.90;;;;;;5059978;28;20056;-48
2023/07/25 09:33:41;;;;;;;2.90;0.98;;;18.60;99.90;;;;;;5061094;28;20111;-48
2023/07/25 09:36:07;;;;;;;3.95;0.77;;;18.50;99.90;;;;;;5062050;28;20049;-48
2023/07/25 09:38:33;;;;;;;5.93;0.90;;;18.40;99.90;;;;;;5064183;28;20123;-50
2023/07/25 09:41:03;;;;;;;3.17;0.80;;;18.20;99.90;;;;;;5065645;28;20103;-49
2023/07/25 09:43:29;;;;;;;3.13;0.73;;;18.30;99.90;;;;;;5066272;28;20071;-50
2023/07/25 09:45:55;;;;;;;3.60;0.77;;;18.60;99.90;;;;;;5059697;28;20677;-48
2023/07/25 09:48:22;;;;;;;4.68;0.80;;;18.90;99.90;;;;;;5060442;28;20111;-49
2023/07/25 09:50:48;;;;;;;5.47;1.05;;;18.90;99.90;;;;;;5064528;28;20099;-48
2023/07/25 09:53:16;;;;;;;3.78;0.90;;;19.00;99.90;;;;;;5063605;28;20044;-46
2023/07/25 09:55:43;;;;;;;3.92;0.88;;;19.00;99.90;;;;;;5062609;28;20124;-46
2023/07/25 09:58:09;;;;;;;4.22;0.85;;;18.90;99.90;;;;;;5065245;28;20066;-48
2023/07/25 10:00:35;;;;;;;4.18;0.88;;;18.70;99.90;;;;;;5065267;28;20089;-51
2023/07/25 10:03:01;;;;;;;6.95;1.05;;;18.50;99.90;;;;;;5062308;28;20241;-52
2023/07/25 10:05:30;;;;;;;7.32;1.83;;;18.40;99.90;;;;;;5062676;28;20036;-50
2023/07/25 10:07:57;;;;;;;7.00;1.00;;;18.20;99.90;;;;;;5060283;28;20036;-50
2023/07/25 10:10:24;;;;;;;5.03;0.90;;;18.30;99.90;;;;;;5065834;28;20051;-48
2023/07/25 10:12:50;;;;;;;11.77;1.20;;;18.50;99.90;;;;;;5066521;28;20043;-50
2023/07/25 10:15:17;;;;;;;6.75;0.93;;;18.70;99.90;;;;;;5064913;28;20589;-48
2023/07/25 10:17:42;;;;;;;4.68;0.60;;;19.00;99.90;;;;;;5066831;28;20041;-48
2023/07/25 10:20:18;;;;;;;10.60;1.58;;;19.20;99.90;;;;;;5066120;28;20069;-47
2023/07/25 10:22:43;;;;;;;3.85;0.60;;;19.40;99.90;;;;;;5065977;28;20032;-47
2023/07/25 10:25:20;;;;;;;5.20;0.80;;;19.60;99.90;;;;;;5064661;28;20569;-48
2023/07/25 10:27:47;;;;;;;3.22;0.60;;;19.80;99.90;;;;;;5065958;28;20036;-49
2023/07/25 10:30:23;;;;;;;3.42;0.60;;;20.00;99.90;;;;;;5065410;28;20040;-48
2023/07/25 10:32:54;;;;;;;2.67;0.65;;;20.20;99.90;;;;;;5065066;28;20124;-50
2023/07/25 10:35:46;;;;;;;5.35;1.02;;;20.10;99.90;;;;;;5064409;28;20029;-50
2023/07/25 10:38:39;;;;;;;6.60;1.13;;;19.80;99.90;;;;;;5064621;28;20036;-51
2023/07/25 10:41:08;;;;;;;5.38;1.08;;;19.50;99.90;;;;;;5063933;28;20361;-50
2023/07/25 10:43:46;;;;;;;4.80;1.00;;;19.30;99.90;;;;;;5064400;28;20129;-50
2023/07/25 10:46:14;;;;;;;4.13;0.95;;;19.20;99.90;;;;;;5065354;28;20048;-51
2023/07/25 10:48:51;;;;;;;4.47;0.90;;;19.30;99.90;;;;;;5064248;28;20089;-49
2023/07/25 10:51:19;;;;;;;4.05;0.80;;;19.40;99.90;;;;;;5065493;28;20194;-50
2023/07/25 10:54:10;;;;;;;2.90;0.65;;;19.60;99.90;;;;;;5065728;28;20058;-51
2023/07/25 10:56:37;;;;;;;5.43;1.10;;;19.80;99.90;;;;;;5065398;28;20040;-47
2023/07/25 10:59:06;;;;;;;6.72;1.20;;;20.00;99.90;;;;;;5064670;28;20388;-51
2023/07/25 11:01:32;;;;;;;3.53;0.93;;;20.10;99.90;;;;;;5064354;28;20098;-53
2023/07/25 11:04:21;;;;;;;6.70;1.05;;;20.10;99.90;;;;;;5064697;28;20052;-51
2023/07/25 11:06:48;;;;;;;3.42;0.70;;;20.00;99.90;;;;;;5064192;28;20097;-48
2023/07/25 11:09:15;;;;;;;3.72;0.60;;;20.00;99.90;;;;;;5064537;28;20027;-52
2023/07/25 11:11:45;;;;;;;4.80;0.80;;;20.20;99.90;;;;;;5064357;28;20056;-48
2023/07/25 11:14:15;;;;;;;2.60;1.00;;;20.40;99.90;;;;;;5064762;28;20076;-52
2023/07/25 11:16:42;;;;;;;3.78;0.50;;;20.50;99.90;;;;;;5063196;28;20024;-51
2023/07/25 11:19:09;;;;;;;4.30;1.00;;;20.70;99.90;;;;;;5064061;28;20097;-51
2023/07/25 11:21:39;;;;;;;5.53;0.93;;;20.80;99.90;;;;;;5062785;28;20094;-52
2023/07/25 11:24:07;;;;;;;5.47;0.80;;;20.90;99.90;;;;;;5061514;28;20408;-52
2023/07/25 11:26:34;;;;;;;3.95;0.70;;;21.00;99.90;;;;;;5058589;28;20059;-50
2023/07/25 11:29:04;;;;;;;3.47;0.60;;;21.10;99.90;;;;;;5060174;28;20086;-51
2023/07/25 11:31:30;;;;;;;3.35;0.60;;;21.30;99.90;;;;;;5062321;28;20037;-52
2023/07/25 11:33:55;;;;;;;6.38;0.90;;;21.60;99.90;;;;;;5060721;28;20078;-52
2023/07/25 11:36:21;;;;;;;4.20;0.90;;;21.70;99.90;;;;;;5061127;28;20184;-50
2023/07/25 11:38:47;;;;;;;5.18;0.90;;;21.60;99.90;;;;;;5060684;28;20041;-48
2023/07/25 11:41:13;;;;;;;3.47;0.68;;;21.50;99.90;;;;;;5061547;28;20437;-52
2023/07/25 11:43:39;;;;;;;3.80;0.60;;;21.40;99.90;;;;;;5064535;28;20046;-50
2023/07/25 11:46:04;;;;;;;4.40;0.60;;;21.40;99.90;;;;;;5064414;28;20048;-53
2023/07/25 11:48:31;;;;;;;2.97;0.75;;;21.40;99.90;;;;;;5059991;28;20036;-51
2023/07/25 11:50:57;;;;;;;2.33;0.75;;;21.30;99.80;;;;;;5062351;28;20053;-51
2023/07/25 11:53:27;;;;;;;4.88;0.80;;;21.20;99.90;;;;;;5062814;28;20071;-47
2023/07/25 11:55:55;;;;;;;6.38;0.85;;;21.00;99.80;;;;;;5062266;28;20036;-48
2023/07/25 11:58:22;;;;;;;4.00;0.80;;;20.80;99.90;;;;;;5061466;28;20035;-50
2023/07/25 12:00:54;;;;;;;3.90;0.70;;;20.70;99.90;;;;;;5058965;28;20032;-50
2023/07/25 12:03:24;;;;;;;5.47;1.02;;;20.70;99.90;;;;;;5059992;28;20025;-51
2023/07/25 12:05:55;;;;;;;3.78;0.65;;;20.90;99.90;;;;;;5060672;28;20036;-49
2023/07/25 12:08:31;;;;;;;4.13;0.93;;;20.90;99.90;;;;;;5061593;28;20056;-49
2023/07/25 12:11:03;;;;;;;5.20;0.65;;;20.80;99.90;;;;;;5060127;28;20111;-49
2023/07/25 12:13:29;;;;;;;4.88;0.80;;;20.70;99.90;;;;;;5094267;28;20734;-49
2023/07/25 12:15:56;;;;;;;5.10;0.98;;;20.70;99.90;;;;;;5061081;28;20562;-49
2023/07/25 12:18:25;;;;;;;3.53;0.80;;;20.70;99.90;;;;;;5060788;28;20040;-50
2023/07/25 12:20:51;;;;;;;3.78;0.95;;;20.70;99.90;;;;;;5063446;28;20037;-51
2023/07/25 12:23:17;;;;;;;4.30;0.75;;;20.80;99.90;;;;;;5063479;28;20078;-49
2023/07/25 12:25:43;;;;;;;4.47;0.70;;;20.90;99.90;;;;;;5060912;28;20125;-49
2023/07/25 12:28:08;;;;;;;3.65;0.70;;;21.00;99.90;;;;;;5065035;28;20048;-50
2023/07/25 12:30:34;;;;;;;10.43;1.10;;;21.10;99.90;;;;;;5068791;28;20047;-51
2023/07/25 12:33:00;;;;;;;5.05;0.70;;;21.10;99.90;;;;;;5069817;28;20089;-49
2023/07/25 12:35:26;;;;;;;4.38;0.90;;;21.00;99.90;;;;;;5069790;28;20051;-49
2023/07/25 12:37:52;;;;;;;4.03;0.80;;;20.90;99.90;;;;;;5067844;28;20075;-50
2023/07/25 12:40:18;;;;;;;4.47;0.80;;;20.70;99.90;;;;;;5070833;28;20127;-49
2023/07/25 12:42:43;;;;;;;3.20;0.60;;;20.50;99.90;;;;;;5072271;28;20040;-52